Latest Weather Observations for Orange Airport

IDN60801

Issued at 3:33 pm EDT Monday 2 March 2015 (issued every 30 minutes, with the page automatically refreshed every 10 minutes)

About weather observations | Map of weather stations | Latest weather observations for NSW | Other Formats
Station Details ID: 063303 Name: ORANGE AIRPORT AWS Lat: -33.38 Lon: 149.13 Height: 944.65 m
Data from the previous 72 hours. | See also: Recent months at Orange Airport
Date/Time
EDT
Temp
°C
App
Temp
°C
Dew
Point
Rel
Hum
%
Delta-T
°C
Wind Press
QNH
hPa
Press
MSL
hPa
Rain
since 9 am
mm
Dir
 
Spd
km/h
Gust
km/h
Spd
kts
Gust
kts
02/03:30pm 22.7 21.4 12.6 53 6.0 NNE 11 20 6 11 1017.4 1013.9 0.0
02/03:00pm 24.2 22.6 14.0 53 6.2 NNE 15 20 8 11 1017.5 1014.0 0.0
02/02:30pm 24.4 23.3 14.2 53 6.3 N 13 22 7 12 1017.8 1014.4 0.0
02/02:00pm 24.1 22.9 15.1 57 5.6 NNE 15 28 8 15 1018.3 1014.8 0.0
02/01:30pm 22.9 20.5 13.7 56 5.6 NE 19 26 10 14 1018.6 1015.2 0.0
02/01:00pm 22.5 20.4 13.6 57 5.4 NE 17 26 9 14 1018.8 1015.4 0.0
02/12:30pm 22.3 19.9 13.9 59 5.1 NE 19 24 10 13 1019.0 1015.6 0.0
02/12:00pm 21.4 18.6 13.3 60 4.8 NE 20 28 11 15 1019.5 1016.1 0.0
02/11:30am 20.2 17.2 12.4 61 4.6 NE 20 30 11 16 1019.8 1016.4 0.0
02/11:00am 19.1 16.1 12.6 66 3.8 NE 20 26 11 14 1020.1 1016.7 0.0
02/10:30am 17.6 14.0 11.8 69 3.3 ENE 22 32 12 17 1020.0 1016.6 0.0
02/10:00am 17.0 13.4 11.9 72 2.9 ENE 22 30 12 16 1020.1 1016.7 0.0
02/09:30am 15.8 12.6 11.4 75 2.5 ENE 19 30 10 16 1019.9 1016.5 0.0
02/09:00am 14.4 10.9 10.8 79 2.0 ENE 20 32 11 17 1019.4 1015.9 0.0
02/08:30am 13.5 10.5 10.5 82 1.6 ENE 17 30 9 16 1019.1 1015.7 0.0
02/08:00am 12.8 10.6 10.7 87 1.1 ENE 13 24 7 13 1019.1 1015.7 0.0
02/07:30am 11.1 9.8 10.0 93 0.6 ESE 7 13 4 7 1018.8 1015.4 0.0
02/07:00am 9.3 7.6 8.2 93 0.6 ESE 7 11 4 6 1018.7 1015.3 0.0
02/06:30am 9.8 7.4 8.6 92 0.6 ESE 11 17 6 9 1018.5 1015.0 0.0
02/06:00am 10.1 8.0 8.4 89 0.9 E 9 13 5 7 1017.9 1014.5 0.0
02/05:30am 10.7 7.9 8.6 87 1.1 ENE 13 22 7 12 1017.7 1014.3 0.0
02/05:12am 11.1 7.4 9.4 89 0.9 E 19 30 10 16 1017.7 1014.3 0.0
02/05:00am 11.2 7.6 9.9 92 0.7 E 19 22 10 12 1017.5 1014.0 0.0
02/04:55am 11.2 8.0 9.9 92 0.7 E 17 22 9 12 1017.5 1014.0 0.0
02/04:37am 11.7 9.0 10.4 92 0.7 E 15 20 8 11 1017.5 1014.0 0.0
02/04:30am 11.7 9.4 10.6 93 0.6 E 13 19 7 10 1017.5 1014.0 0.0
02/04:18am 11.7 9.4 10.6 93 0.6 E 13 22 7 12 1017.6 1014.2 0.0
02/04:00am 11.6 9.3 10.5 93 0.6 E 13 20 7 11 1017.7 1014.3 0.0
02/03:59am 11.5 8.8 10.4 93 0.6 E 15 22 8 12 1017.7 1014.3 0.0
02/03:54am 11.6 8.6 10.5 93 0.6 E 17 32 9 17 1017.6 1014.2 0.0
02/03:30am 11.8 7.8 10.5 92 0.7 E 22 28 12 15 1017.4 1013.9 0.0
02/03:03am 12.2 7.8 10.4 89 1.0 E 24 33 13 18 1017.3 1013.8 0.0
02/03:00am 12.4 7.7 10.5 88 1.0 E 26 35 14 19 1017.3 1013.8 0.0
02/02:45am 12.8 7.8 10.9 88 1.0 E 28 35 15 19 1017.2 1013.7 0.0
02/02:30am 12.9 9.1 11.0 88 1.0 E 22 32 12 17 1017.4 1013.9 0.0
02/02:26am 12.9 9.1 11.0 88 1.0 E 22 32 12 17 1017.4 1013.9 0.0
02/02:07am 13.0 9.2 11.2 89 1.0 E 22 32 12 17 1017.6 1014.2 0.0
02/02:00am 13.1 9.7 11.3 89 1.0 E 20 32 11 17 1017.5 1014.0 0.0
02/01:49am 13.2 9.5 11.4 89 1.0 E 22 30 12 16 1017.3 1013.8 0.0
02/01:30am 13.5 9.5 11.7 89 1.0 E 24 32 13 17 1017.2 1013.7 0.0
02/01:11am 13.7 10.1 11.9 89 1.0 E 22 33 12 18 1017.1 1013.6 0.0
02/01:00am 13.8 9.9 12.0 89 1.0 E 24 37 13 20 1017.1 1013.6 0.0
02/12:53am 13.9 10.1 12.3 90 0.9 E 24 37 13 20 1017.1 1013.6 0.0
02/12:34am 14.1 9.6 12.5 90 0.9 E 28 41 15 22 1016.8 1013.4 0.0
02/12:30am 14.1 9.6 12.5 90 0.9 E 28 41 15 22 1016.8 1013.4 0.0
02/12:15am 14.3 9.9 12.9 91 0.8 E 28 35 15 19 1016.5 1013.0 0.0
02/12:00am 14.7 9.6 13.1 90 0.9 E 32 44 17 24 1016.5 1013.0 0.0
 
Date/Time
EDT
Temp
°C
App
Temp
°C
Dew
Point
Rel
Hum
%
Delta-T
°C
Wind Press
QNH
hPa
Press
MSL
hPa
Rain
since 9 am
mm
Dir
 
Spd
km/h
Gust
km/h
Spd
kts
Gust
kts
01/11:57pm 14.9 10.2 13.3 90 0.9 E 30 44 16 24 1016.4 1012.9 0.0
01/11:38pm 16.0 12.2 14.7 92 0.8 E 28 39 15 21 1016.3 1012.8 0.0
01/11:30pm 16.7 14.4 15.6 93 0.7 E 22 30 12 16 1016.3 1012.8 0.0
01/11:26pm 16.5 14.5 15.4 93 0.7 ESE 20 28 11 15 1016.3 1012.8 0.0
01/11:00pm 12.9 8.4 6.0 63 3.4 SE 19 20 10 11 1016.2 1012.7 0.0
01/10:30pm 14.8 12.0 5.1 52 4.8 S 9 11 5 6 1016.1 1012.6 0.0
01/10:00pm 15.1 12.1 4.2 48 5.3 SSE 9 11 5 6 1015.9 1012.4 0.0
01/09:00pm 18.9 13.4 3.9 37 7.5 SSW 22 30 12 16 1014.7 1011.1 0.0
01/08:30pm 19.9 14.3 5.2 38 7.6 SSW 24 33 13 18 1014.2 1010.7 0.0
01/08:00pm 20.7 16.2 7.0 41 7.3 SSW 20 30 11 16 1013.8 1010.2 0.0
01/07:30pm 21.9 17.9 10.4 48 6.6 SSW 22 32 12 17 1013.3 1009.8 0.0
01/07:00pm 22.7 17.1 11.4 49 6.6 SSW 32 39 17 21 1012.5 1008.9 0.0
01/06:30pm 23.7 18.8 13.8 53 6.0 SW 32 41 17 22 1012.4 1008.8 0.0
01/06:00pm 24.9 20.5 14.1 51 6.7 SSW 30 43 16 23 1011.7 1008.1 0.0
01/05:30pm 26.6 21.4 13.3 43 8.1 WSW 33 46 18 25 1010.9 1007.3 0.0
01/05:00pm 27.0 21.8 13.4 43 8.4 SW 33 44 18 24 1010.8 1007.2 0.0
01/04:30pm 27.9 23.6 14.5 44 8.4 WSW 30 41 16 22 1010.7 1007.1 0.0
01/04:00pm 25.8 23.3 15.2 52 6.7 NW 22 28 12 15 1011.1 1007.6 0.0
01/03:36pm 21.6 14.1 12.2 55 5.5 NW 43 61 23 33 1011.7 1008.1 0.0
01/03:30pm 23.4 17.5 13.6 54 5.9 WNW 37 61 20 33 1011.3 1007.7 0.0
01/03:25pm 25.8 22.2 15.2 52 6.7 WNW 28 57 15 31 1011.3 1007.7 0.0
01/03:00pm 30.2 27.3 16.2 42 9.1 WNW 26 37 14 20 1010.5 1006.9 0.0
01/02:30pm 27.0 23.6 14.7 47 7.7 WNW 26 39 14 21 1011.3 1007.7 0.0
01/02:00pm 29.0 27.2 17.8 50 7.4 WNW 24 39 13 21 1011.8 1008.2 0.0
01/01:30pm 26.1 25.6 16.9 57 5.9 NW 15 20 8 11 1012.1 1008.6 0.0
01/01:00pm 27.5 24.8 16.5 51 7.1 NW 26 39 14 21 1012.1 1008.6 0.0
01/12:30pm 27.6 25.0 16.9 52 6.9 NW 26 41 14 22 1012.8 1009.2 0.0
01/12:00pm 27.3 24.1 17.2 54 6.6 NNW 30 41 16 22 1012.8 1009.2 0.0
01/11:30am 26.3 22.7 17.6 58 5.7 NW 33 43 18 23 1013.1 1009.6 0.0
01/11:00am 25.9 23.5 18.3 63 5.0 NNW 28 37 15 20 1013.1 1009.6 0.0
01/10:30am 24.6 21.0 17.6 65 4.5 NW 33 43 18 23 1013.1 1008.4 0.0
01/10:00am 23.8 20.2 17.1 66 4.3 NNW 32 43 17 23 1012.9 1008.1 0.0
01/09:30am 22.9 19.5 16.7 68 3.9 NNW 30 41 16 22 1012.6 1007.8 0.0
01/09:00am 22.1 19.4 16.6 71 3.5 NNW 26 39 14 21 1012.4 1007.6 0.0
01/08:30am 20.9 18.1 15.4 71 3.4 NNW 24 32 13 17 1012.1 1007.4 0.0
01/08:00am 20.1 18.1 15.5 75 2.8 NNW 20 26 11 14 1012.1 1007.4 0.0
01/07:30am 18.9 16.9 15.0 78 2.4 NNW 19 26 10 14 1011.9 1007.1 0.0
01/07:00am 16.8 14.8 13.9 83 1.7 N 17 20 9 11 1011.7 1006.9 0.0
01/06:30am 16.3 14.7 12.7 79 2.1 N 13 15 7 8 1011.4 1006.6 0.0
01/06:00am 16.5 15.1 12.3 76 2.4 NNW 11 13 6 7 1011.0 1006.2 0.0
01/05:30am 16.5 14.7 12.1 75 2.5 NNW 13 15 7 8 1010.9 1006.1 0.0
01/05:00am 16.2 13.9 11.8 75 2.5 N 15 17 8 9 1010.8 1006.0 0.0
01/04:30am 16.2 13.5 11.6 74 2.6 N 17 17 9 9 1010.7 1005.9 0.0
01/04:00am 16.4 13.8 12.0 75 2.5 N 17 19 9 10 1010.8 1006.0 0.0
01/03:30am 15.2 13.2 11.4 78 2.1 N 13 15 7 8 1010.9 1006.1 0.0
01/03:00am 15.8 14.5 11.2 74 2.6 N 9 11 5 6 1011.1 1006.4 0.0
01/02:30am 15.7 15.0 11.9 78 2.2 NNW 7 9 4 5 1011.5 1006.7 0.0
01/02:00am 15.1 14.4 12.1 82 1.7 NNW 7 9 4 5 1011.8 1007.0 0.0
01/01:30am 15.7 14.9 11.7 77 2.3 N 7 9 4 5 1011.9 1007.1 0.0
01/01:00am 15.7 14.6 11.9 78 2.2 N 9 9 5 5 1012.2 1007.5 0.0
01/12:30am 15.4 14.5 11.4 77 2.3 N 7 9 4 5 1012.6 1007.8 0.0
01/12:00am 16.7 17.3 11.8 73 2.8 CALM 0 0 0 0 1012.7 1007.9 0.0
 
Date/Time
EDT
Temp
°C
App
Temp
°C
Dew
Point
Rel
Hum
%
Delta-T
°C
Wind Press
QNH
hPa
Press
MSL
hPa
Rain
since 9 am
mm
Dir
 
Spd
km/h
Gust
km/h
Spd
kts
Gust
kts
28/11:30pm 17.3 16.6 12.0 71 3.0 NNW 7 9 4 5 1012.8 1008.0 0.0
28/11:00pm 17.5 17.1 13.0 75 2.6 NNW 7 7 4 4 1012.9 1008.1 0.0
28/10:30pm 17.7 18.3 13.0 74 2.8 NNW 2 7 1 4 1013.0 1008.3 0.0
28/10:00pm 17.5 18.3 12.4 72 3.0 CALM 0 0 0 0 1013.0 1008.3 0.0
28/09:30pm 18.6 19.2 11.9 65 3.9 CALM 0 0 0 0 1012.9 1008.1 0.0
28/09:00pm 20.2 20.8 11.9 59 4.8 CALM 0 0 0 0 1012.8 1008.0 0.0
28/08:30pm 20.1 19.2 10.8 55 5.3 NE 6 9 3 5 1012.5 1007.7 0.0
28/08:00pm 21.2 19.9 10.1 49 6.3 NNE 7 7 4 4 1012.1 1007.4 0.0
28/07:30pm 22.7 21.1 10.2 45 7.1 NNE 9 11 5 6 1011.9 1007.1 0.0
28/07:00pm 24.7 23.1 10.2 40 8.4 N 9 15 5 8 1011.7 1006.9 0.0
28/06:30pm 26.4 24.7 8.4 32 10.2 NNW 7 11 4 6 1011.6 1006.8 0.0
28/06:00pm 26.7 24.7 8.6 32 10.3 N 9 13 5 7 1011.6 1006.8 0.0
28/05:30pm 26.8 24.4 6.8 28 11.0 N 9 15 5 8 1011.6 1006.8 0.0
28/05:00pm 27.1 24.2 6.5 27 11.3 N 11 19 6 10 1011.7 1006.9 0.0
28/04:30pm 27.0 24.1 8.0 30 10.7 NNW 13 20 7 11 1011.8 1007.0 0.0
28/04:00pm 27.1 24.8 9.0 32 10.4 NNE 11 17 6 9 1011.9 1007.1 0.0
28/03:30pm 26.9 25.4 8.4 31 10.5 N 6 19 3 10 1012.2 1007.5 0.0
28/03:00pm 26.8 24.8 10.1 35 9.7 N 11 20 6 11 1012.5 1007.7 0.0
28/02:30pm 26.3 24.2 9.6 35 9.6 NNW 11 19 6 10 1012.8 1008.0 0.0
28/02:00pm 26.4 24.0 11.3 39 8.9 NW 15 22 8 12 1013.3 1008.6 0.0
28/01:30pm 26.0 24.7 13.8 47 7.5 N 13 20 7 11 1013.6 1008.8 0.0
28/01:00pm 25.0 23.4 13.9 50 6.8 NNW 15 26 8 14 1014.0 1009.3 0.0
28/12:30pm 23.9 21.9 14.9 57 5.6 NNW 19 24 10 13 1014.2 1009.5 0.0
28/12:00pm 22.2 20.7 14.1 60 4.9 NNW 15 19 8 10 1014.7 1009.9 0.0
28/11:30am 21.9 19.9 13.8 60 4.9 N 17 22 9 12 1014.8 1010.0 0.0
28/11:00am 21.2 21.2 16.2 73 3.1 N 11 13 6 7 1014.8 1010.0 0.0
28/10:30am 19.6 18.9 15.3 76 2.6 N 13 17 7 9 1014.9 1010.1 0.0
28/10:00am 19.4 19.3 16.1 81 2.1 NNE 11 15 6 8 1014.7 1009.9 0.0
28/09:30am 17.3 18.2 16.2 93 0.7 N 6 9 3 5 1014.7 1009.9 0.0
28/09:00am 16.3 16.9 15.2 93 0.7 NNE 6 7 3 4 1014.3 1009.6 0.0
28/08:30am 15.6 17.0 14.5 93 0.7 CALM 0 0 0 0 1014.5 1009.8 0.0
28/08:00am 15.2 16.5 14.1 93 0.7 CALM 0 0 0 0 1014.2 1009.5 0.0
28/07:41am 14.5 14.4 13.4 93 0.6 NNW 6 7 3 4 1014.0 1009.3 0.0
28/07:30am 14.3 14.2 13.2 93 0.6 N 6 6 3 3 1014.0 1009.3 0.0
28/07:16am 13.9 13.4 12.8 93 0.6 N 7 9 4 5 1013.8 1009.0 0.0
28/07:00am 14.1 13.9 13.0 93 0.6 N 6 7 3 4 1013.7 1008.9 0.0
28/06:30am 14.6 15.7 13.5 93 0.6 CALM 0 7 0 4 1013.3 1008.6 0.0
28/06:26am 14.4 15.4 13.3 93 0.6 CALM 0 4 0 2 1013.3 1008.6 0.0
28/06:07am 14.2 13.8 13.1 93 0.6 NE 7 9 4 5 1013.3 1008.6 0.0
28/06:00am 14.5 14.2 13.4 93 0.6 NE 7 9 4 5 1013.3 1008.6 0.0
28/05:30am 14.7 14.1 13.6 93 0.6 NNE 9 11 5 6 1013.1 1008.4 0.0
28/05:00am 14.5 15.2 13.4 93 0.6 NNE 2 6 1 3 1013.0 1008.3 0.0
28/04:30am 14.7 14.7 13.6 93 0.6 NNE 6 7 3 4 1012.8 1008.0 0.0
28/04:00am 14.3 13.6 13.2 93 0.6 NNE 9 9 5 5 1012.9 1008.1 0.0
28/03:30am 14.7 15.5 13.6 93 0.6 N 2 6 1 3 1013.0 1008.3 0.0
28/03:00am 14.7 14.5 13.6 93 0.6 NNE 7 9 4 5 1013.2 1008.5 0.0
28/02:30am 15.0 15.5 13.9 93 0.6 NNE 4 9 2 5 1013.2 1008.5 0.0
28/02:00am 15.8 15.2 14.7 93 0.7 NNE 11 15 6 8 1013.4 1008.7 0.0
28/01:30am 15.3 14.4 13.7 90 0.9 NE 11 13 6 7 1013.4 1008.7 0.0
28/01:00am 15.3 14.2 13.1 87 1.3 NE 11 13 6 7 1013.7 1008.9 0.0
28/12:30am 15.5 14.7 12.8 84 1.6 NE 9 11 5 6 1013.9 1009.1 0.0
28/12:00am 15.9 15.2 13.2 84 1.6 NE 9 11 5 6 1013.9 1009.1 0.0
 
Date/Time
EDT
Temp
°C
App
Temp
°C
Dew
Point
Rel
Hum
%
Delta-T
°C
Wind Press
QNH
hPa
Press
MSL
hPa
Rain
since 9 am
mm
Dir
 
Spd
km/h
Gust
km/h
Spd
kts
Gust
kts
27/11:30pm 15.2 14.6 12.3 83 1.7 ENE 7 11 4 6 1013.8 1009.0 0.0
27/11:00pm 15.0 14.0 12.3 84 1.5 ENE 9 13 5 7 1013.9 1009.1 0.0
27/10:30pm 14.7 14.9 11.7 82 1.7 WSW 2 17 1 9 1013.9 1009.1 0.0
27/10:00pm 16.3 16.2 13.2 82 1.8 WSW 6 9 3 5 1013.8 1009.0 0.0
27/09:30pm 17.1 18.0 13.0 77 2.4 CALM 0 0 0 0 1013.4 1008.7 0.0
27/09:00pm 16.9 16.6 11.6 71 3.0 SW 4 7 2 4 1013.2 1008.5 0.0
27/08:30pm 19.3 20.2 12.8 66 3.8 CALM 0 0 0 0 1012.6 1007.8 0.0
27/08:00pm 20.2 20.9 12.2 60 4.7 CALM 0 0 0 0 1012.2 1007.5 0.0
27/07:30pm 23.2 23.7 11.6 48 6.8 CALM 0 6 0 3 1011.9 1007.1 0.0
27/07:00pm 22.5 21.8 11.9 51 6.2 NW 7 9 4 5 1011.9 1007.1 0.0
27/06:30pm 25.2 23.8 11.0 41 8.3 WNW 9 15 5 8 1011.8 1007.0 0.0
27/06:00pm 26.2 25.0 9.5 35 9.6 NW 6 9 3 5 1011.6 1006.8 0.0
27/05:30pm 25.7 25.0 9.9 37 9.1 SSE 4 15 2 8 1011.6 1006.8 0.0
27/05:00pm 25.9 24.6 10.1 37 9.2 WSW 7 11 4 6 1011.7 1006.9 0.0
27/04:30pm 25.8 24.0 10.8 39 8.8 WNW 11 17 6 9 1011.6 1006.8 0.0
27/04:00pm 25.4 23.6 10.8 40 8.5 NNW 11 17 6 9 1011.8 1007.0 0.0

Other Formats:

Comma delimited format used in spreadsheet applications
http://www.bom.gov.au/fwo/IDN60801/IDN60801.95726.axf

JavaScript Object Notation format (JSON) in row-major order
http://www.bom.gov.au/fwo/IDN60801/IDN60801.95726.json